createdAt,value
2018-12-14T00:06:40.230Z,98076.80
2018-12-14T00:10:44.349Z,98083.95
2018-12-14T00:14:48.546Z,98085.24
2018-12-14T00:18:52.697Z,98077.70
2018-12-14T00:22:56.839Z,98074.73
2018-12-14T00:27:01.041Z,98082.05
2018-12-14T00:31:05.145Z,98079.59
2018-12-14T00:35:09.302Z,98084.07
2018-12-14T00:39:13.373Z,98085.97
2018-12-14T00:43:17.470Z,98093.52
2018-12-14T00:47:21.679Z,98091.33
2018-12-14T00:51:25.760Z,98097.70
2018-12-14T00:55:29.906Z,98102.14
2018-12-14T00:59:33.986Z,98100.58
2018-12-14T01:03:38.091Z,98102.75
2018-12-14T01:07:42.253Z,98106.60
2018-12-14T01:11:46.341Z,98111.23
2018-12-14T01:15:50.442Z,98110.48
2018-12-14T01:19:54.597Z,98115.08
2018-12-14T01:23:58.700Z,98111.23
2018-12-14T01:28:02.853Z,98109.25
2018-12-14T01:32:06.977Z,98109.07
2018-12-14T01:36:11.049Z,98117.30
2018-12-14T01:40:15.162Z,98117.29
2018-12-14T01:44:19.313Z,98124.19
2018-12-14T01:48:23.429Z,98126.42
2018-12-14T01:52:27.818Z,98118.74
2018-12-14T01:56:31.939Z,98124.23
2018-12-14T02:00:36.082Z,98121.48
2018-12-14T02:04:40.189Z,98120.31
2018-12-14T02:08:44.271Z,98119.64
2018-12-14T02:12:48.355Z,98114.85
2018-12-14T02:16:52.551Z,98109.83
2018-12-14T02:20:56.805Z,98100.50
2018-12-14T02:25:00.849Z,98102.76
2018-12-14T02:29:05.025Z,98115.69
2018-12-14T02:33:09.337Z,98118.95
2018-12-14T02:37:13.486Z,98118.67
2018-12-14T02:41:17.569Z,98115.06
2018-12-14T02:45:22.667Z,98115.43
2018-12-14T02:49:26.801Z,98118.84
2018-12-14T02:53:30.885Z,98116.13
2018-12-14T02:57:34.968Z,98109.22
2018-12-14T03:01:39.139Z,98116.30
2018-12-14T03:05:43.281Z,98119.13
2018-12-14T03:09:47.361Z,98111.63
2018-12-14T03:13:51.503Z,98117.73
2018-12-14T03:17:55.655Z,98109.98
2018-12-14T03:21:59.761Z,98121.97
2018-12-14T03:26:03.825Z,98125.84
2018-12-14T03:30:08.739Z,98113.73
2018-12-14T03:34:13.149Z,98118.78
2018-12-14T03:38:17.226Z,98118.22
2018-12-14T03:42:21.364Z,98120.36
2018-12-14T03:46:25.634Z,98121.12
2018-12-14T03:50:29.840Z,98125.75
2018-12-14T03:54:33.907Z,98126.53
2018-12-14T03:58:38.056Z,98128.27
2018-12-14T04:02:42.194Z,98137.11
2018-12-14T04:06:46.266Z,98135.22
2018-12-14T04:10:50.349Z,98141.75
2018-12-14T04:14:54.478Z,98142.13
2018-12-14T04:18:58.698Z,98137.69
2018-12-14T04:23:02.756Z,98142.13
2018-12-14T04:27:06.946Z,98141.34
2018-12-14T04:31:11.062Z,98135.39
2018-12-14T04:35:15.173Z,98136.75
2018-12-14T04:39:19.266Z,98140.00
2018-12-14T04:43:24.849Z,98134.61
2018-12-14T04:47:28.932Z,98135.55
2018-12-14T04:51:33.007Z,98134.92
2018-12-14T04:55:37.081Z,98140.13
2018-12-14T04:59:41.258Z,98137.03
2018-12-14T05:03:45.353Z,98143.27
2018-12-14T05:07:49.417Z,98146.97
2018-12-14T05:11:53.530Z,98152.16
2018-12-14T05:15:57.586Z,98151.55
2018-12-14T05:20:01.675Z,98149.47
2018-12-14T05:24:05.897Z,98153.66
2018-12-14T05:28:10.008Z,98153.31
2018-12-14T05:32:14.167Z,98150.03
2018-12-14T05:36:18.276Z,98151.39
2018-12-14T05:40:22.390Z,98142.90
2018-12-14T05:44:26.488Z,98154.05
2018-12-14T05:48:30.620Z,98149.46
2018-12-14T05:52:34.733Z,98147.14
2018-12-14T05:56:38.881Z,98152.17
2018-12-14T06:00:42.979Z,98164.48
2018-12-14T06:04:47.077Z,98163.13
2018-12-14T06:08:51.166Z,98168.35
2018-12-14T06:12:55.245Z,98172.17
2018-12-14T06:16:59.391Z,98172.77
2018-12-14T06:21:03.480Z,98181.24
2018-12-14T06:25:07.698Z,98184.14
2018-12-14T06:29:11.864Z,98187.05
2018-12-14T06:33:15.953Z,98189.53
2018-12-14T06:37:20.397Z,98200.91
2018-12-14T06:41:24.537Z,98194.86
2018-12-14T06:45:28.633Z,98194.09
2018-12-14T06:49:32.698Z,98204.84
2018-12-14T06:53:36.784Z,98205.06
2018-12-14T06:57:40.874Z,98207.61
2018-12-14T07:01:44.951Z,98204.33
2018-12-14T07:05:49.093Z,98202.95
2018-12-14T07:09:53.179Z,98202.03
2018-12-14T07:13:57.237Z,98213.79
2018-12-14T07:18:01.331Z,98224.41
2018-12-14T07:22:05.649Z,98220.77
2018-12-14T07:26:09.765Z,98231.17
2018-12-14T07:30:14.834Z,98234.05
2018-12-14T07:34:18.927Z,98239.06
2018-12-14T07:38:23.049Z,98246.39
2018-12-14T07:42:27.171Z,98257.19
2018-12-14T07:46:31.254Z,98254.70
2018-12-14T07:50:35.426Z,98261.94
2018-12-14T07:54:39.489Z,98265.18
2018-12-14T07:58:43.896Z,98268.77
2018-12-14T08:02:48.102Z,98273.54
2018-12-14T08:06:52.233Z,98275.42
2018-12-14T08:10:56.320Z,98283.20
2018-12-14T08:15:00.465Z,98285.19
2018-12-14T08:19:04.553Z,98290.36
2018-12-14T08:23:08.687Z,98279.18
2018-12-14T08:27:12.769Z,98284.70
2018-12-14T08:31:16.836Z,98283.19
2018-12-14T08:35:20.937Z,98296.02
2018-12-14T08:39:25.114Z,98294.77
2018-12-14T08:43:29.779Z,98296.72
2018-12-14T08:47:33.859Z,98292.94
2018-12-14T08:51:37.962Z,98308.19
2018-12-14T08:55:42.050Z,98310.17
2018-12-14T08:59:46.129Z,98318.05
2018-12-14T09:03:50.251Z,98329.70
2018-12-14T09:07:54.374Z,98337.73
2018-12-14T09:11:59.110Z,98334.04
2018-12-14T09:16:04.185Z,98344.28
2018-12-14T09:20:08.613Z,98357.19
2018-12-14T09:24:12.707Z,98350.22
2018-12-14T09:28:16.837Z,98358.72
2018-12-14T09:32:20.925Z,98353.76
2018-12-14T09:36:25.252Z,98353.89
2018-12-14T09:40:29.506Z,98362.06
2018-12-14T09:44:33.619Z,98359.61
2018-12-14T09:48:37.741Z,98362.09
2018-12-14T09:52:41.814Z,98362.94
2018-12-14T09:56:45.891Z,98356.66
2018-12-14T10:00:49.969Z,98361.48
2018-12-14T10:04:54.095Z,98358.36
2018-12-14T10:08:58.171Z,98350.06
2018-12-14T10:13:02.270Z,98364.42
2018-12-14T10:17:07.459Z,98362.86
2018-12-14T10:21:11.546Z,98364.83
2018-12-14T10:25:15.632Z,98369.06
2018-12-14T10:29:19.800Z,98374.27
2018-12-14T10:33:23.856Z,98374.81
2018-12-14T10:37:27.949Z,98370.27
2018-12-14T10:41:32.018Z,98380.70
2018-12-14T10:45:36.445Z,98380.93
2018-12-14T10:49:40.545Z,98388.09
2018-12-14T10:53:44.601Z,98380.72
2018-12-14T10:57:49.061Z,98386.81
2018-12-14T11:01:56.636Z,98384.92
2018-12-14T11:06:00.854Z,98383.59
2018-12-14T11:10:07.729Z,98378.83
2018-12-14T11:14:14.114Z,98379.81
2018-12-14T11:18:17.836Z,98385.21
2018-12-14T11:22:21.949Z,98386.56
2018-12-14T11:26:26.233Z,98386.88
2018-12-14T11:30:30.398Z,98384.83
2018-12-14T11:34:34.575Z,98381.20
2018-12-14T11:38:38.670Z,98370.77
2018-12-14T11:42:42.753Z,98372.53
2018-12-14T11:46:46.927Z,98363.34
2018-12-14T11:50:51.013Z,98362.13
2018-12-14T11:54:55.097Z,98361.73
2018-12-14T11:58:59.189Z,98359.84
2018-12-14T12:03:03.261Z,98359.88
2018-12-14T12:07:07.361Z,98361.68
2018-12-14T12:11:11.521Z,98360.78
2018-12-14T12:19:50.552Z,98357.50
2018-12-14T12:23:55.503Z,98346.00
2018-12-14T12:27:59.905Z,98346.40
2018-12-14T12:32:03.985Z,98359.17
2018-12-14T12:36:08.143Z,98355.30
2018-12-14T12:40:12.288Z,98360.70
2018-12-14T12:44:16.433Z,98357.19
2018-12-14T12:48:20.545Z,98348.91
2018-12-14T12:52:24.629Z,98360.29
2018-12-14T12:56:29.084Z,98364.61
2018-12-14T13:00:33.178Z,98364.36
2018-12-14T13:04:38.859Z,98375.45
2018-12-14T13:08:43.116Z,98371.27
2018-12-14T13:12:47.290Z,98366.88
2018-12-14T13:16:51.405Z,98364.02
2018-12-14T13:20:55.492Z,98369.00
2018-12-14T13:24:59.572Z,98365.64
2018-12-14T13:29:03.779Z,98373.78
2018-12-14T13:33:08.225Z,98374.78
2018-12-14T13:37:12.315Z,98382.28
2018-12-14T13:41:16.453Z,98381.93
2018-12-14T13:45:21.599Z,98385.75
2018-12-14T13:49:25.788Z,98381.38
2018-12-14T13:53:29.942Z,98384.42
2018-12-14T13:57:34.029Z,98388.53
2018-12-14T14:01:38.164Z,98395.13
2018-12-14T14:05:42.275Z,98400.64
2018-12-14T14:09:46.410Z,98409.55
2018-12-14T14:13:50.561Z,98420.08
2018-12-14T14:17:54.645Z,98419.89
2018-12-14T14:21:58.733Z,98423.19
2018-12-14T14:26:02.826Z,98439.06
2018-12-14T14:30:08.581Z,98439.60
2018-12-14T14:34:12.665Z,98454.39
2018-12-14T14:38:17.754Z,98453.58
2018-12-14T14:42:21.831Z,98452.73
2018-12-14T14:46:25.923Z,98456.66
2018-12-14T14:50:30.105Z,98463.09
2018-12-14T14:54:39.759Z,98461.46
2018-12-14T14:58:40.213Z,98463.50
2018-12-14T15:02:44.294Z,98467.90
2018-12-14T15:06:48.429Z,98471.64
2018-12-14T15:10:52.526Z,98480.22
2018-12-14T15:14:56.614Z,98494.89
2018-12-14T15:19:00.678Z,98487.06
2018-12-14T15:23:04.760Z,98495.17
2018-12-14T15:27:08.967Z,98492.45
2018-12-14T15:31:13.195Z,98497.30
2018-12-14T15:35:17.323Z,98503.52
2018-12-14T15:39:21.399Z,98503.80
2018-12-14T15:43:25.709Z,98513.90
2018-12-14T15:47:29.790Z,98522.81
2018-12-14T15:51:33.868Z,98529.96
2018-12-14T15:55:38.017Z,98535.35
2018-12-14T15:59:42.256Z,98536.14
2018-12-14T16:03:46.345Z,98539.78
2018-12-14T16:07:50.421Z,98544.53
2018-12-14T16:11:54.566Z,98544.30
2018-12-14T16:15:58.645Z,98548.56
2018-12-14T16:20:03.086Z,98551.05
2018-12-14T16:24:07.263Z,98552.45
2018-12-14T16:28:11.450Z,98553.81
2018-12-14T16:32:15.541Z,98560.80
2018-12-14T16:36:19.606Z,98554.58
2018-12-14T16:40:23.694Z,98563.67
2018-12-14T16:44:27.830Z,98565.25
2018-12-14T16:48:31.890Z,98562.88
2018-12-14T16:52:36.048Z,98572.92
2018-12-14T16:56:40.132Z,98578.64
2018-12-14T17:00:44.292Z,98572.59
2018-12-14T17:04:48.671Z,98584.48
2018-12-14T17:08:52.754Z,98585.80
2018-12-14T17:12:56.851Z,98588.41
2018-12-14T17:17:00.934Z,98593.22
2018-12-14T17:21:05.037Z,98599.36
2018-12-14T17:25:09.101Z,98605.77
2018-12-14T17:29:13.170Z,98614.94
2018-12-14T17:33:17.261Z,98613.88
2018-12-14T17:37:21.350Z,98623.68
2018-12-14T17:41:25.516Z,98617.68
2018-12-14T17:45:29.637Z,98618.67
2018-12-14T17:49:33.773Z,98633.14
2018-12-14T17:53:39.690Z,98627.36
2018-12-14T17:57:43.787Z,98635.17
2018-12-14T18:01:47.941Z,98632.89
2018-12-14T18:05:52.120Z,98642.05
2018-12-14T18:14:20.226Z,98650.00
2018-12-14T18:18:24.309Z,98645.16
2018-12-14T18:22:28.408Z,98658.14
2018-12-14T18:26:32.569Z,98659.99
2018-12-14T18:30:36.706Z,98661.49
2018-12-14T18:34:40.823Z,98660.53
2018-12-14T18:38:44.919Z,98668.58
2018-12-14T18:42:49.013Z,98678.20
2018-12-14T18:46:53.091Z,98681.32
2018-12-14T18:50:57.619Z,98676.55
2018-12-14T18:55:01.720Z,98683.50
2018-12-14T18:59:06.020Z,98684.55
2018-12-14T19:03:10.125Z,98677.70
2018-12-14T19:07:14.231Z,98691.25
2018-12-14T19:11:18.450Z,98689.28
2018-12-14T19:15:22.560Z,98696.13
2018-12-14T19:19:26.739Z,98699.44
2018-12-14T19:23:31.874Z,98704.00
2018-12-14T19:27:36.063Z,98708.70
2018-12-14T19:31:40.184Z,98709.03
2018-12-14T19:35:44.377Z,98715.31
2018-12-14T19:39:48.454Z,98720.08
2018-12-14T19:43:52.580Z,98728.95
2018-12-14T19:47:56.687Z,98737.76
2018-12-14T19:52:00.879Z,98733.02
2018-12-14T19:56:05.029Z,98738.10
2018-12-14T20:00:12.393Z,98740.83
2018-12-14T20:04:16.485Z,98740.19
2018-12-14T20:08:20.918Z,98746.09
2018-12-14T20:12:25.035Z,98748.83
2018-12-14T20:16:29.110Z,98745.88
2018-12-14T20:20:33.238Z,98748.25
2018-12-14T20:24:38.441Z,98745.42
2018-12-14T20:28:42.621Z,98749.80
2018-12-14T20:32:46.700Z,98751.73
2018-12-14T20:36:50.836Z,98750.63
2018-12-14T20:40:54.946Z,98755.83
2018-12-14T20:44:59.047Z,98757.17
2018-12-14T20:49:03.126Z,98759.80
2018-12-14T20:53:07.209Z,98759.01
2018-12-14T20:57:11.319Z,98752.83
2018-12-14T21:01:15.402Z,98757.15
2018-12-14T21:05:19.502Z,98756.61
2018-12-14T21:09:23.610Z,98756.87
2018-12-14T21:13:27.744Z,98766.25
2018-12-14T21:17:31.836Z,98768.06
2018-12-14T21:21:35.970Z,98766.14
2018-12-14T21:25:40.138Z,98767.08
2018-12-14T21:29:44.218Z,98766.30
2018-12-14T21:33:48.302Z,98762.02
2018-12-14T21:37:52.443Z,98759.39
2018-12-14T21:41:56.535Z,98758.08
2018-12-14T21:46:00.633Z,98751.20
2018-12-14T21:54:22.457Z,98747.92
2018-12-14T21:58:48.490Z,98744.86
2018-12-14T22:02:52.619Z,98746.86
2018-12-14T22:11:17.513Z,98737.95
2018-12-14T22:15:22.254Z,98738.66
2018-12-14T22:19:48.259Z,98744.68
2018-12-14T22:23:52.417Z,98730.59
2018-12-14T22:32:11.494Z,98738.66
2018-12-14T22:36:15.596Z,98738.36
2018-12-14T22:40:47.425Z,98735.25
2018-12-14T22:44:52.447Z,98732.84
2018-12-14T22:48:56.575Z,98731.10
2018-12-14T22:53:00.649Z,98728.75
2018-12-14T22:57:04.755Z,98728.13
2018-12-14T23:05:49.285Z,98731.09
2018-12-14T23:09:53.403Z,98730.39
2018-12-14T23:13:58.461Z,98736.36
2018-12-14T23:18:02.564Z,98740.92
2018-12-14T23:22:06.816Z,98744.88
2018-12-14T23:26:16.468Z,98741.36
2018-12-14T23:30:20.611Z,98753.14
2018-12-14T23:34:48.213Z,98748.52
2018-12-14T23:38:52.375Z,98750.59
2018-12-14T23:42:56.629Z,98746.93
2018-12-14T23:47:00.740Z,98753.38
2018-12-14T23:51:04.839Z,98756.01
2018-12-14T23:55:08.980Z,98747.83
2018-12-14T23:59:13.081Z,98743.83
